createdAt,value
2018-04-04T00:01:12.644Z,99.90
2018-04-04T00:03:41.347Z,99.90
2018-04-04T00:06:09.824Z,99.90
2018-04-04T00:08:38.127Z,99.90
2018-04-04T00:11:06.517Z,99.90
2018-04-04T00:13:36.839Z,99.90
2018-04-04T00:16:05.151Z,99.90
2018-04-04T00:18:33.560Z,99.90
2018-04-04T00:21:01.876Z,99.90
2018-04-04T00:23:30.191Z,99.90
2018-04-04T00:26:00.224Z,99.90
2018-04-04T00:28:28.526Z,99.90
2018-04-04T00:30:56.840Z,99.90
2018-04-04T00:33:25.730Z,99.90
2018-04-04T00:35:54.152Z,99.90
2018-04-04T00:38:22.529Z,99.90
2018-04-04T00:40:50.815Z,99.90
2018-04-04T00:43:19.996Z,99.90
2018-04-04T00:45:48.581Z,99.90
2018-04-04T00:48:16.899Z,99.90
2018-04-04T00:50:45.954Z,99.90
2018-04-04T00:53:14.371Z,99.90
2018-04-04T00:55:43.451Z,99.90
2018-04-04T00:58:12.093Z,99.90
2018-04-04T01:00:40.835Z,99.90
2018-04-04T01:03:09.907Z,99.90
2018-04-04T01:05:38.875Z,99.90
2018-04-04T01:08:07.456Z,99.90
2018-04-04T01:10:36.192Z,99.90
2018-04-04T01:13:05.493Z,99.90
2018-04-04T01:15:35.406Z,99.90
2018-04-04T01:18:05.158Z,99.90
2018-04-04T01:20:33.584Z,99.90
2018-04-04T01:23:02.192Z,99.90
2018-04-04T01:25:31.344Z,99.90
2018-04-04T01:28:00.368Z,99.90
2018-04-04T01:30:29.851Z,99.90
2018-04-04T01:33:03.030Z,99.90
2018-04-04T01:35:31.419Z,99.90
2018-04-04T01:38:00.413Z,99.90
2018-04-04T01:40:29.088Z,99.90
2018-04-04T01:42:57.521Z,99.90
2018-04-04T01:45:26.851Z,99.90
2018-04-04T01:48:01.999Z,99.90
2018-04-04T01:50:32.170Z,99.90
2018-04-04T01:53:00.851Z,99.90
2018-04-04T01:55:30.742Z,99.90
2018-04-04T01:58:00.656Z,99.90
2018-04-04T02:00:29.110Z,99.90
2018-04-04T02:02:57.546Z,99.90
2018-04-04T02:05:27.478Z,99.90
2018-04-04T02:07:56.485Z,99.90
2018-04-04T02:10:25.981Z,99.90
2018-04-04T02:12:55.266Z,99.90
2018-04-04T02:15:23.700Z,99.90
2018-04-04T02:17:52.703Z,99.90
2018-04-04T02:20:26.573Z,99.90
2018-04-04T02:22:55.024Z,99.90
2018-04-04T02:25:24.529Z,99.90
2018-04-04T02:27:54.086Z,99.90
2018-04-04T02:30:22.576Z,99.90
2018-04-04T02:32:51.123Z,99.90
2018-04-04T02:35:19.504Z,99.90
2018-04-04T02:37:49.355Z,99.90
2018-04-04T02:40:17.680Z,99.90
2018-04-04T02:45:21.018Z,99.90
2018-04-04T02:47:50.625Z,99.90
2018-04-04T02:50:21.219Z,99.90
2018-04-04T02:52:50.300Z,99.90
2018-04-04T02:55:19.482Z,99.90
2018-04-04T02:57:47.981Z,99.90
2018-04-04T03:00:16.306Z,99.90
2018-04-04T03:02:44.668Z,99.90
2018-04-04T03:05:13.643Z,99.90
2018-04-04T03:07:42.693Z,99.90
2018-04-04T03:10:11.655Z,99.90
2018-04-04T03:12:40.016Z,99.90
2018-04-04T03:15:08.327Z,99.90
2018-04-04T03:17:36.647Z,99.90
2018-04-04T03:20:05.008Z,99.90
2018-04-04T03:22:33.322Z,99.90
2018-04-04T03:25:02.403Z,99.90
2018-04-04T03:27:31.528Z,99.90
2018-04-04T03:29:59.853Z,99.90
2018-04-04T03:32:28.170Z,99.90
2018-04-04T03:34:56.539Z,99.90
2018-04-04T03:37:25.625Z,99.90
2018-04-04T03:39:54.708Z,99.90
2018-04-04T03:42:23.192Z,99.90
2018-04-04T03:44:51.496Z,99.90
2018-04-04T03:47:20.582Z,99.90
2018-04-04T03:49:49.711Z,99.90
2018-04-04T03:52:18.036Z,99.90
2018-04-04T03:54:46.362Z,99.90
2018-04-04T03:57:14.720Z,99.90
2018-04-04T03:59:43.803Z,99.90
2018-04-04T04:02:12.103Z,99.90
2018-04-04T04:04:40.471Z,99.90
2018-04-04T04:07:08.968Z,99.90
2018-04-04T04:09:37.279Z,99.90
2018-04-04T04:12:05.619Z,99.90
2018-04-04T04:14:33.923Z,99.90
2018-04-04T04:17:02.224Z,99.90
2018-04-04T04:19:30.563Z,99.90
2018-04-04T04:21:58.896Z,99.90
2018-04-04T04:24:27.206Z,99.90
2018-04-04T04:26:55.597Z,99.90
2018-04-04T04:29:23.896Z,99.90
2018-04-04T04:31:52.256Z,99.90
2018-04-04T04:34:20.589Z,99.90
2018-04-04T04:36:48.895Z,99.90
2018-04-04T04:39:17.200Z,99.90
2018-04-04T04:41:45.556Z,99.90
2018-04-04T04:44:13.869Z,99.90
2018-04-04T04:46:42.185Z,99.90
2018-04-04T04:49:10.516Z,99.90
2018-04-04T04:51:38.826Z,99.90
2018-04-04T04:54:07.135Z,99.90
2018-04-04T04:56:36.242Z,99.90
2018-04-04T04:59:04.548Z,99.90
2018-04-04T05:01:32.889Z,99.90
2018-04-04T05:04:01.199Z,99.90
2018-04-04T05:06:29.507Z,99.90
2018-04-04T05:08:57.842Z,99.90
2018-04-04T05:11:26.148Z,99.90
2018-04-04T05:13:54.532Z,99.90
2018-04-04T05:16:22.843Z,99.90
2018-04-04T05:18:51.916Z,99.90
2018-04-04T05:21:20.305Z,99.90
2018-04-04T05:23:48.630Z,99.90
2018-04-04T05:26:16.940Z,99.90
2018-04-04T05:28:45.308Z,99.90
2018-04-04T05:31:13.620Z,99.90
2018-04-04T05:33:41.977Z,99.90
2018-04-04T05:36:10.288Z,99.90
2018-04-04T05:38:39.403Z,99.90
2018-04-04T05:41:09.601Z,99.90
2018-04-04T05:43:37.921Z,99.90
2018-04-04T05:46:06.320Z,99.90
2018-04-04T05:48:34.607Z,99.90
2018-04-04T05:51:02.946Z,99.90
2018-04-04T05:53:31.300Z,99.90
2018-04-04T05:55:59.660Z,99.90
2018-04-04T05:58:27.984Z,99.90
2018-04-04T06:00:56.300Z,99.90
2018-04-04T06:03:24.640Z,99.90
2018-04-04T06:05:52.955Z,99.90
2018-04-04T06:08:21.324Z,99.90
2018-04-04T06:10:49.644Z,99.90
2018-04-04T06:13:18.733Z,99.90
2018-04-04T06:15:47.888Z,99.90
2018-04-04T06:18:16.212Z,99.90
2018-04-04T06:20:44.524Z,99.90
2018-04-04T06:23:13.273Z,99.90
2018-04-04T06:25:42.432Z,99.90
2018-04-04T06:28:10.793Z,99.90
2018-04-04T06:30:48.584Z,99.90
2018-04-04T06:33:16.899Z,99.90
2018-04-04T06:35:45.236Z,99.90
2018-04-04T06:38:13.876Z,99.90
2018-04-04T06:40:42.369Z,99.90
2018-04-04T06:43:11.309Z,99.90
2018-04-04T06:45:39.725Z,99.90
2018-04-04T06:48:08.032Z,99.90
2018-04-04T06:50:37.091Z,99.90
2018-04-04T06:53:05.497Z,99.90
2018-04-04T06:55:34.588Z,99.90
2018-04-04T06:58:03.664Z,99.90
2018-04-04T07:00:32.464Z,99.90
2018-04-04T07:03:00.794Z,99.90
2018-04-04T07:05:29.105Z,99.90
2018-04-04T07:07:57.549Z,99.90
2018-04-04T07:10:25.861Z,99.90
2018-04-04T07:12:54.176Z,99.90
2018-04-04T07:15:23.316Z,99.90
2018-04-04T07:17:52.115Z,99.90
2018-04-04T07:20:20.444Z,99.90
2018-04-04T07:22:48.824Z,99.90
2018-04-04T07:25:17.133Z,99.90
2018-04-04T07:27:46.324Z,99.90
2018-04-04T07:30:15.508Z,99.90
2018-04-04T07:32:44.193Z,99.90
2018-04-04T07:35:13.448Z,99.90
2018-04-04T07:37:42.636Z,99.90
2018-04-04T07:40:10.951Z,99.90
2018-04-04T07:42:40.027Z,99.40
2018-04-04T07:45:08.400Z,99.40
2018-04-04T07:47:36.733Z,99.20
2018-04-04T07:50:05.044Z,98.70
2018-04-04T07:52:33.404Z,97.90
2018-04-04T07:55:01.712Z,97.50
2018-04-04T07:57:30.032Z,97.70
2018-04-04T07:59:58.478Z,97.00
2018-04-04T08:02:26.804Z,96.60
2018-04-04T08:04:55.115Z,96.60
2018-04-04T08:07:23.587Z,96.70
2018-04-04T08:09:51.904Z,95.70
2018-04-04T08:12:20.984Z,95.60
2018-04-04T08:14:49.337Z,95.60
2018-04-04T08:17:17.661Z,94.60
2018-04-04T08:19:46.004Z,94.60
2018-04-04T08:22:14.341Z,93.50
2018-04-04T08:24:42.728Z,92.40
2018-04-04T08:27:11.060Z,91.40
2018-04-04T08:29:40.145Z,89.60
2018-04-04T08:32:09.062Z,89.40
2018-04-04T08:34:38.029Z,87.90
2018-04-04T08:37:06.423Z,84.10
2018-04-04T08:39:36.087Z,79.80
2018-04-04T08:42:04.423Z,79.80
2018-04-04T08:44:33.277Z,75.90
2018-04-04T08:47:01.908Z,68.00
2018-04-04T08:49:31.500Z,63.70
2018-04-04T08:52:00.663Z,66.10
2018-04-04T08:54:29.662Z,64.60
2018-04-04T08:56:57.988Z,62.40
2018-04-04T08:59:26.410Z,59.90
2018-04-04T09:01:55.174Z,56.90
2018-04-04T09:04:24.046Z,51.70
2018-04-04T09:06:54.290Z,50.60
2018-04-04T09:09:22.646Z,53.10
2018-04-04T09:11:51.674Z,51.30
2018-04-04T09:14:20.997Z,50.30
2018-04-04T09:16:49.542Z,46.80
2018-04-04T09:19:18.435Z,44.40
2018-04-04T09:21:47.722Z,41.10
2018-04-04T09:24:16.420Z,43.10
2018-04-04T09:26:44.989Z,46.80
2018-04-04T09:29:13.910Z,48.00
2018-04-04T09:31:43.182Z,44.40
2018-04-04T09:34:12.514Z,43.10
2018-04-04T09:36:42.194Z,43.40
2018-04-04T09:39:10.563Z,44.30
2018-04-04T09:41:39.434Z,46.00
2018-04-04T09:44:08.595Z,45.60
2018-04-04T09:46:37.366Z,45.60
2018-04-04T09:49:06.674Z,45.50
2018-04-04T09:51:35.144Z,46.90
2018-04-04T09:54:03.636Z,45.90
2018-04-04T09:56:32.541Z,42.30
2018-04-04T09:59:00.901Z,40.50
2018-04-04T10:01:35.638Z,35.30
2018-04-04T10:04:04.098Z,33.90
2018-04-04T10:06:32.996Z,33.20
2018-04-04T10:09:02.010Z,32.70
2018-04-04T10:11:31.058Z,34.40
2018-04-04T10:13:59.469Z,35.00
2018-04-04T10:16:29.345Z,34.30
2018-04-04T10:18:58.316Z,31.40
2018-04-04T10:21:30.777Z,29.90
2018-04-04T10:23:59.425Z,28.40
2018-04-04T10:26:28.853Z,29.00
2018-04-04T10:28:57.345Z,28.50
2018-04-04T10:31:26.238Z,29.20
2018-04-04T10:33:55.496Z,30.40
2018-04-04T10:36:23.906Z,29.70
2018-04-04T10:38:52.253Z,30.10
2018-04-04T10:41:21.798Z,30.40
2018-04-04T10:43:50.392Z,29.10
2018-04-04T10:46:18.780Z,29.20
2018-04-04T10:48:47.189Z,28.40
2018-04-04T10:51:15.562Z,28.60
2018-04-04T10:53:43.923Z,28.60
2018-04-04T10:56:12.737Z,31.10
2018-04-04T10:58:41.811Z,30.20
2018-04-04T11:01:10.944Z,30.10
2018-04-04T11:03:40.665Z,30.10
2018-04-04T11:06:09.489Z,31.40
2018-04-04T11:08:40.780Z,30.80
2018-04-04T11:11:09.879Z,28.90
2018-04-04T11:13:38.806Z,27.20
2018-04-04T11:16:08.894Z,25.60
2018-04-04T11:18:37.470Z,25.30
2018-04-04T11:21:06.097Z,26.00
2018-04-04T11:23:34.513Z,26.30
2018-04-04T11:26:03.470Z,26.10
2018-04-04T11:28:32.562Z,26.40
2018-04-04T11:31:00.958Z,27.70
2018-04-04T11:33:30.743Z,28.50
2018-04-04T11:35:59.243Z,28.70
2018-04-04T11:38:27.638Z,29.20
2018-04-04T11:40:55.990Z,28.70
2018-04-04T11:43:24.366Z,27.60
2018-04-04T11:45:54.188Z,27.10
2018-04-04T11:48:22.544Z,27.60
2018-04-04T11:50:50.906Z,26.00
2018-04-04T11:53:21.286Z,25.90
2018-04-04T11:55:50.378Z,25.80
2018-04-04T11:58:22.544Z,25.00
2018-04-04T12:00:50.894Z,24.60
2018-04-04T12:03:19.255Z,25.40
2018-04-04T12:05:47.655Z,24.90
2018-04-04T12:08:16.456Z,24.50
2018-04-04T12:10:44.830Z,24.40
2018-04-04T12:13:15.286Z,25.00
2018-04-04T12:15:43.797Z,24.50
2018-04-04T12:18:12.898Z,24.90
2018-04-04T12:20:42.054Z,24.90
2018-04-04T12:23:11.083Z,25.40
2018-04-04T12:25:40.144Z,25.40
2018-04-04T12:28:10.059Z,25.20
2018-04-04T12:30:38.660Z,26.30
2018-04-04T12:33:07.428Z,26.40
2018-04-04T12:35:37.582Z,25.90
2018-04-04T12:38:06.731Z,27.00
2018-04-04T12:40:35.934Z,27.00
2018-04-04T12:43:04.787Z,27.20
2018-04-04T12:45:37.059Z,27.40
2018-04-04T12:48:06.125Z,27.90
2018-04-04T12:50:36.026Z,27.60
2018-04-04T12:53:05.276Z,27.30
2018-04-04T12:55:34.205Z,27.90
2018-04-04T12:58:03.331Z,28.10
2018-04-04T13:00:32.543Z,28.60
2018-04-04T13:03:04.975Z,28.60
2018-04-04T13:05:33.920Z,28.70
2018-04-04T13:08:02.979Z,29.30
2018-04-04T13:10:32.228Z,29.30
2018-04-04T13:13:01.319Z,29.90
2018-04-04T13:15:30.408Z,30.30
2018-04-04T13:18:02.712Z,30.80
2018-04-04T13:20:31.927Z,32.10
2018-04-04T13:23:00.836Z,32.70
2018-04-04T13:25:30.062Z,38.80
2018-04-04T13:27:58.990Z,45.30
2018-04-04T13:30:27.351Z,49.90
2018-04-04T13:32:55.779Z,50.70
2018-04-04T13:35:24.910Z,54.10
2018-04-04T13:37:53.264Z,54.10
2018-04-04T13:40:22.376Z,55.90
2018-04-04T13:42:50.730Z,55.80
2018-04-04T13:45:21.825Z,59.30
2018-04-04T13:47:50.239Z,59.20
2018-04-04T13:50:19.422Z,60.70
2018-04-04T13:52:48.449Z,64.10
2018-04-04T13:55:16.833Z,73.20
2018-04-04T13:57:45.294Z,90.60
2018-04-04T14:00:14.363Z,99.90
2018-04-04T14:02:43.058Z,99.90
2018-04-04T14:05:11.515Z,99.90
2018-04-04T14:07:40.019Z,99.90
2018-04-04T14:10:08.699Z,99.90
2018-04-04T14:12:37.058Z,99.90
2018-04-04T14:15:06.259Z,99.90
2018-04-04T14:17:34.632Z,99.90
2018-04-04T14:20:03.519Z,99.90
2018-04-04T14:22:32.580Z,99.00
2018-04-04T14:25:01.717Z,96.00
2018-04-04T14:27:30.893Z,96.00
2018-04-04T14:29:59.280Z,95.80
2018-04-04T14:32:28.112Z,95.20
2018-04-04T14:34:57.258Z,95.60
2018-04-04T14:37:26.310Z,95.10
2018-04-04T14:39:54.663Z,94.50
2018-04-04T14:42:23.171Z,93.70
2018-04-04T14:44:52.285Z,93.30
2018-04-04T14:47:20.629Z,93.20
2018-04-04T14:49:49.487Z,92.90
2018-04-04T14:52:18.657Z,92.90
2018-04-04T14:54:49.209Z,91.70
2018-04-04T14:57:18.271Z,90.00
2018-04-04T14:59:46.675Z,90.70
2018-04-04T15:02:15.024Z,88.70
2018-04-04T15:04:43.858Z,87.90
2018-04-04T15:07:12.175Z,86.00
2018-04-04T15:09:40.584Z,87.00
2018-04-04T15:12:08.940Z,86.50
2018-04-04T15:14:37.410Z,85.30
2018-04-04T15:17:06.393Z,86.80
2018-04-04T15:19:35.201Z,87.90
2018-04-04T15:22:03.703Z,88.00
2018-04-04T15:24:32.711Z,88.30
2018-04-04T15:27:02.500Z,90.00
2018-04-04T15:29:31.024Z,90.30
2018-04-04T15:31:59.858Z,90.90
2018-04-04T15:34:28.171Z,91.10
2018-04-04T15:36:57.306Z,92.00
2018-04-04T15:39:26.455Z,92.00
2018-04-04T15:41:55.376Z,92.40
2018-04-04T15:44:23.868Z,94.10
2018-04-04T15:46:52.801Z,95.50
2018-04-04T15:49:21.121Z,96.50
2018-04-04T15:51:50.968Z,99.90
2018-04-04T15:54:19.303Z,99.90
2018-04-04T15:56:51.009Z,99.90
2018-04-04T15:59:19.956Z,99.90
2018-04-04T16:01:48.264Z,99.90
2018-04-04T16:04:16.673Z,99.90
2018-04-04T16:06:45.267Z,99.90
2018-04-04T16:09:13.969Z,99.90
2018-04-04T16:11:42.340Z,99.90
2018-04-04T16:14:11.156Z,99.90
2018-04-04T16:16:39.591Z,99.90
2018-04-04T16:19:08.572Z,99.90
2018-04-04T16:21:36.880Z,99.90
2018-04-04T16:24:05.828Z,99.90
2018-04-04T16:26:35.177Z,99.90
2018-04-04T16:29:04.152Z,99.90
2018-04-04T16:31:32.459Z,99.90
2018-04-04T16:34:02.292Z,99.90
2018-04-04T16:36:30.892Z,99.90
2018-04-04T16:38:59.192Z,99.90
2018-04-04T16:41:27.932Z,99.90
2018-04-04T16:43:56.304Z,99.90
2018-04-04T16:46:24.624Z,99.90
2018-04-04T16:48:53.056Z,99.90
2018-04-04T16:51:21.404Z,99.90
2018-04-04T16:53:49.886Z,99.90
2018-04-04T16:56:18.791Z,99.90
2018-04-04T16:58:48.555Z,99.90
2018-04-04T17:01:16.882Z,99.90
2018-04-04T17:03:45.187Z,99.90
2018-04-04T17:06:14.236Z,99.90
2018-04-04T17:08:43.143Z,99.90
2018-04-04T17:11:11.521Z,99.90
2018-04-04T17:13:39.904Z,99.90
2018-04-04T17:16:08.212Z,99.90
2018-04-04T17:18:36.625Z,99.90
2018-04-04T17:21:05.322Z,99.90
2018-04-04T17:23:33.636Z,99.90
2018-04-04T17:26:02.717Z,99.90
2018-04-04T17:28:32.616Z,99.90
2018-04-04T17:31:01.571Z,99.90
2018-04-04T17:33:30.724Z,99.90
2018-04-04T17:35:59.113Z,99.90
2018-04-04T17:38:28.196Z,99.90
2018-04-04T17:40:56.503Z,99.90
2018-04-04T17:43:25.468Z,99.90
2018-04-04T17:45:53.850Z,99.90
2018-04-04T17:48:22.128Z,99.90
2018-04-04T17:50:50.468Z,99.90
2018-04-04T17:53:18.784Z,99.90
2018-04-04T17:55:47.153Z,99.90
2018-04-04T17:58:15.472Z,99.90
2018-04-04T18:00:44.322Z,99.90
2018-04-04T18:03:13.412Z,99.90
2018-04-04T18:05:41.740Z,99.90
2018-04-04T18:08:10.851Z,99.90
2018-04-04T18:10:39.173Z,99.90
2018-04-04T18:13:08.130Z,99.90
2018-04-04T18:15:36.500Z,99.90
2018-04-04T18:18:05.484Z,99.90
2018-04-04T18:20:33.971Z,99.90
2018-04-04T18:23:02.780Z,99.90
2018-04-04T18:25:31.200Z,99.90
2018-04-04T18:28:00.225Z,99.90
2018-04-04T18:30:28.922Z,99.90
2018-04-04T18:32:57.252Z,99.90
2018-04-04T18:35:26.776Z,99.90
2018-04-04T18:37:55.141Z,99.90
2018-04-04T18:40:23.450Z,99.90
2018-04-04T18:42:51.761Z,99.90
2018-04-04T18:45:20.700Z,99.90
2018-04-04T18:47:49.800Z,99.90
2018-04-04T18:50:19.008Z,99.90
2018-04-04T18:52:47.400Z,99.90
2018-04-04T18:55:15.713Z,99.90
2018-04-04T18:57:44.735Z,99.90
2018-04-04T19:00:13.807Z,99.90
2018-04-04T19:02:42.123Z,99.90
2018-04-04T19:05:10.981Z,99.90
2018-04-04T19:07:40.049Z,99.90
2018-04-04T19:10:08.520Z,99.90
2018-04-04T19:12:39.248Z,99.90
2018-04-04T19:15:08.426Z,99.90
2018-04-04T19:17:36.740Z,99.90
2018-04-04T19:20:05.784Z,99.90
2018-04-04T19:22:34.645Z,99.90
2018-04-04T19:25:03.760Z,99.90
2018-04-04T19:27:32.891Z,99.90
2018-04-04T19:30:01.877Z,99.90
2018-04-04T19:32:30.231Z,99.90
2018-04-04T19:34:59.324Z,99.90
2018-04-04T19:37:27.631Z,99.90
2018-04-04T19:39:55.946Z,99.90
2018-04-04T19:42:24.992Z,99.90
2018-04-04T19:44:55.540Z,99.90
2018-04-04T19:47:23.892Z,99.90
2018-04-04T19:49:52.439Z,99.90
2018-04-04T19:52:20.740Z,99.90
2018-04-04T19:54:51.344Z,99.90
2018-04-04T19:57:20.140Z,99.90
2018-04-04T19:59:48.768Z,99.90
2018-04-04T20:02:17.869Z,99.90
2018-04-04T20:04:46.769Z,99.90
2018-04-04T20:07:15.520Z,99.90
2018-04-04T20:09:47.395Z,99.90
2018-04-04T20:12:15.775Z,99.90
2018-04-04T20:14:45.104Z,99.90
2018-04-04T20:17:14.507Z,99.90
2018-04-04T20:19:43.283Z,99.90
2018-04-04T20:22:11.636Z,99.90
2018-04-04T20:24:41.105Z,99.90
2018-04-04T20:27:09.439Z,99.90
2018-04-04T20:29:37.775Z,99.90
2018-04-04T20:32:07.884Z,99.90
2018-04-04T20:34:38.032Z,99.90
2018-04-04T20:37:06.356Z,99.90
2018-04-04T20:39:35.020Z,99.90
2018-04-04T20:42:03.387Z,99.90
2018-04-04T20:44:34.020Z,99.90
2018-04-04T20:47:02.416Z,99.90
2018-04-04T20:49:31.274Z,99.90
2018-04-04T20:51:59.633Z,99.90
2018-04-04T20:54:27.972Z,99.90
2018-04-04T20:56:56.296Z,99.90
2018-04-04T20:59:24.659Z,99.90
2018-04-04T21:01:53.703Z,99.90
2018-04-04T21:04:22.512Z,99.90
2018-04-04T21:06:50.856Z,99.90
2018-04-04T21:09:19.392Z,99.90
2018-04-04T21:11:48.430Z,99.90
2018-04-04T21:14:17.652Z,99.90
2018-04-04T21:16:45.963Z,99.90
2018-04-04T21:19:14.874Z,99.90
2018-04-04T21:21:43.329Z,99.90
2018-04-04T21:24:12.220Z,99.90
2018-04-04T21:26:41.375Z,99.90
2018-04-04T21:29:09.772Z,99.90
2018-04-04T21:31:38.852Z,99.90
2018-04-04T21:34:07.952Z,99.90
2018-04-04T21:36:36.257Z,99.90
2018-04-04T21:39:07.775Z,99.90
2018-04-04T21:41:36.696Z,99.90
2018-04-04T21:44:05.148Z,99.90
2018-04-04T21:46:33.516Z,99.90
2018-04-04T21:49:02.773Z,99.90
2018-04-04T21:51:32.582Z,99.90
2018-04-04T21:54:01.573Z,99.90
2018-04-04T21:56:29.895Z,99.90
2018-04-04T21:58:58.245Z,99.90
2018-04-04T22:01:26.660Z,99.90
2018-04-04T22:03:55.121Z,99.90
2018-04-04T22:06:23.476Z,99.90
2018-04-04T22:08:52.572Z,99.90
2018-04-04T22:11:21.183Z,99.90
2018-04-04T22:13:49.531Z,99.90
2018-04-04T22:16:18.556Z,99.90
2018-04-04T22:18:46.888Z,99.90
2018-04-04T22:21:16.888Z,99.90
2018-04-04T22:23:45.859Z,99.90
2018-04-04T22:26:14.892Z,99.90
2018-04-04T22:28:43.382Z,99.90
2018-04-04T22:31:11.778Z,99.90
2018-04-04T22:33:40.898Z,99.90
2018-04-04T22:36:09.251Z,99.90
2018-04-04T22:38:38.042Z,99.90
2018-04-04T22:41:06.388Z,99.90
2018-04-04T22:43:35.362Z,99.90
2018-04-04T22:46:04.445Z,99.90
2018-04-04T22:48:32.748Z,99.90
2018-04-04T22:51:03.612Z,99.90
2018-04-04T22:53:32.204Z,99.90
2018-04-04T22:56:00.772Z,99.90
2018-04-04T22:58:30.074Z,99.90
2018-04-04T23:01:02.508Z,99.90
2018-04-04T23:03:30.865Z,99.90
2018-04-04T23:05:59.846Z,99.90
2018-04-04T23:08:28.789Z,99.90
2018-04-04T23:10:58.125Z,99.90
2018-04-04T23:13:27.110Z,99.90
2018-04-04T23:15:56.179Z,99.90
2018-04-04T23:18:24.526Z,99.90
2018-04-04T23:20:55.074Z,99.90
2018-04-04T23:23:24.202Z,99.90
2018-04-04T23:25:52.583Z,99.90
2018-04-04T23:28:21.171Z,99.90
2018-04-04T23:30:49.844Z,99.90
2018-04-04T23:33:18.950Z,99.90
2018-04-04T23:35:47.358Z,99.90
2018-04-04T23:38:16.961Z,99.90
2018-04-04T23:40:45.850Z,99.90
2018-04-04T23:43:14.210Z,99.90
2018-04-04T23:45:42.907Z,99.90
2018-04-04T23:48:11.366Z,99.90
2018-04-04T23:50:40.138Z,99.90
2018-04-04T23:53:09.320Z,99.90
2018-04-04T23:55:38.258Z,99.90
2018-04-04T23:58:06.614Z,99.90
